Time;durP1;ratioP1;P1;durP2;ratioP2;P2;SDS_P1;SDS_P2;PMS_P1;PMS_P2;Temp;Humidity;BMP_temperature;BMP_pressure;BME280_temperature;BME280_humidity;BME280_pressure;Samples;Min_cycle;Max_cycle;Signal;HPM_P1;HPM_P2
2023/08/12 16:20:07;;;;;;;;;2.00;2.00;;;;;21.53;67.10;101614.66;1991472;27;2746141;-71
2023/08/12 16:21:18;;;;;;;;;4.00;2.00;;;;;21.66;66.28;101613.84;2027392;28;3451361;-71
2023/08/12 16:22:29;;;;;;;;;2.33;2.00;;;;;21.83;66.35;101614.56;2034880;28;2750791;-72
2023/08/12 16:23:40;;;;;;;;;2.00;2.00;;;;;21.97;66.15;101609.16;2024878;27;2751480;-72
2023/08/12 16:24:52;;;;;;;;;1.75;1.75;;;;;22.15;65.50;101614.19;2037160;28;2729421;-73
2023/08/12 16:26:05;;;;;;;;;3.00;2.00;;;;;22.32;65.47;101610.34;2034106;28;2739870;-74
2023/08/12 16:27:15;;;;;;;;;2.00;2.00;;;;;22.45;64.64;101613.03;1989927;27;2748197;-74
2023/08/12 16:28:27;;;;;;;;;2.00;2.00;;;;;22.59;64.24;101613.91;2031543;28;2741959;-74
2023/08/12 16:29:40;;;;;;;;;2.67;2.00;;;;;22.73;63.37;101612.06;2035692;28;2729492;-74
2023/08/12 16:30:51;;;;;;;;;2.00;2.00;;;;;22.85;62.42;101610.31;1993333;28;2750354;-74
2023/08/12 16:32:06;;;;;;;;;1.50;1.50;;;;;22.97;62.08;101600.53;2041725;28;2724221;-74
2023/08/12 16:33:16;;;;;;;;;3.00;2.00;;;;;23.08;62.10;101603.31;1987243;28;2747179;-74
2023/08/12 16:34:27;;;;;;;;;2.00;2.00;;;;;23.19;61.73;101607.03;2024736;28;2750404;-74
2023/08/12 16:35:38;;;;;;;;;1.00;1.00;;;;;23.26;61.33;101611.81;2041077;28;2727739;-74
2023/08/12 16:36:48;;;;;;;;;2.00;2.00;;;;;23.35;60.62;101604.94;1991523;28;2737789;-74
2023/08/12 16:38:00;;;;;;;;;1.00;1.00;;;;;23.43;60.89;101607.03;2032154;28;2729487;-74
2023/08/12 16:39:13;;;;;;;;;2.00;2.00;;;;;23.51;60.80;101601.09;2035389;28;2735741;-74
2023/08/12 16:40:27;;;;;;;;;2.00;2.00;;;;;23.58;60.04;101606.91;1993677;28;2744027;-74
2023/08/12 16:41:41;;;;;;;;;1.00;1.00;;;;;23.65;59.87;101609.97;2041238;28;2726371;-74
2023/08/12 16:42:54;;;;;;;;;1.00;1.00;;;;;23.71;59.03;101615.72;2016910;27;2732609;-74
2023/08/12 16:44:05;;;;;;;;;2.00;2.00;;;;;23.77;59.43;101608.16;1989461;27;2742016;-73
2023/08/12 16:45:19;;;;;;;;;1.00;1.00;;;;;23.82;59.15;101612.22;2041720;28;2725297;-73
2023/08/12 16:46:32;;;;;;;;;1.50;1.50;;;;;23.88;58.74;101604.69;2017980;28;2726327;-72
2023/08/12 16:47:42;;;;;;;;;1.00;1.00;;;;;23.93;58.37;101608.69;1991483;28;2737242;-71
2023/08/12 16:48:53;;;;;;;;;1.00;1.00;;;;;23.98;58.18;101608.34;2041197;28;2720066;-72
2023/08/12 16:50:07;;;;;;;;;2.00;1.00;;;;;24.02;57.79;101607.16;2010795;28;2739893;-72
2023/08/12 16:51:20;;;;;;;;;1.83;1.00;;;;;24.05;58.37;101614.94;2013094;28;2724299;-72
2023/08/12 16:52:30;;;;;;;;;2.00;2.00;;;;;24.08;57.26;101613.00;1993512;28;2735704;-72
2023/08/12 16:53:41;;;;;;;;;1.00;1.00;;;;;24.11;57.80;101612.78;2040991;28;2725298;-72
2023/08/12 16:54:55;;;;;;;;;1.33;1.33;;;;;24.13;57.48;101614.34;2042097;28;2727356;-72
2023/08/12 16:56:05;;;;;;;;;1.67;1.00;;;;;24.16;57.90;101614.13;1994328;28;2736094;-72
2023/08/12 16:57:16;;;;;;;;;1.33;1.00;;;;;24.19;57.08;101613.03;2029476;28;2734700;-70
2023/08/12 16:58:27;;;;;;;;;2.00;2.00;;;;;24.22;56.89;101609.25;2027307;28;2738377;-70
2023/08/12 16:59:38;;;;;;;;;1.33;1.33;;;;;24.25;56.88;101607.19;2027684;28;2734741;-70
2023/08/12 17:00:51;;;;;;;;;1.33;1.33;;;;;24.26;56.18;101603.56;2034371;28;2731580;-70
2023/08/12 17:02:04;;;;;;;;;1.00;1.00;;;;;24.29;55.68;101613.22;2034221;28;2727349;-70
2023/08/12 17:03:18;;;;;;;;;2.00;1.00;;;;;24.33;55.30;101613.81;2017136;27;2727741;-72
2023/08/12 17:04:31;;;;;;;;;2.17;0.50;;;;;24.34;55.56;101608.34;2015482;27;2732629;-70
2023/08/12 17:05:44;;;;;;;;;1.17;1.00;;;;;24.37;55.68;101612.59;2018296;28;2725297;-70
2023/08/12 17:06:57;;;;;;;;;4.00;1.50;;;;;24.37;55.40;101609.94;2017089;27;2730474;-71
2023/08/12 17:08:08;;;;;;;;;2.00;1.67;;;;;24.39;55.42;101613.34;1991747;28;2736818;-72
2023/08/12 17:09:20;;;;;;;;;0.00;0.00;;;;;24.40;55.05;101604.28;2040947;28;2724260;-72
2023/08/12 17:10:37;;;;;;;;;2.00;1.00;;;;;24.43;55.01;101612.09;2042086;28;2719047;-72
2023/08/12 17:11:50;;;;;;;;;1.67;1.67;;;;;24.43;55.19;101606.75;2023208;28;2725313;-72
2023/08/12 17:13:00;;;;;;;;;4.00;1.67;;;;;24.45;54.99;101607.47;1992376;28;2742032;-73
2023/08/12 17:14:12;;;;;;;;;1.33;1.00;;;;;24.46;55.22;101603.81;2029473;27;2725768;-73
2023/08/12 17:15:25;;;;;;;;;2.00;1.00;;;;;24.47;54.87;101616.25;2018514;28;2726384;-74
2023/08/12 17:16:38;;;;;;;;;0.33;0.33;;;;;24.49;54.58;101617.00;2015815;28;2730504;-74
2023/08/12 17:17:51;;;;;;;;;1.00;1.00;;;;;24.50;54.80;101607.09;2019009;28;2725293;-74
2023/08/12 17:19:02;;;;;;;;;1.67;1.67;;;;;24.50;54.94;101616.03;1989504;27;2736148;-73
2023/08/12 17:20:13;;;;;;;;;0.00;0.00;;;;;24.50;54.67;101616.03;2032177;28;2725266;-74
2023/08/12 17:21:23;;;;;;;;;2.00;2.00;;;;;24.52;54.00;101620.44;1985206;28;2731878;-74
2023/08/12 17:22:34;;;;;;;;;2.00;2.00;;;;;24.52;54.06;101617.75;2023764;27;2742047;-74
2023/08/12 17:23:46;;;;;;;;;2.00;2.00;;;;;24.52;54.33;101623.13;2031146;28;2727380;-74
2023/08/12 17:25:02;;;;;;;;;2.00;2.00;;;;;24.53;54.20;101616.75;2012016;28;2719047;-74
2023/08/12 17:26:15;;;;;;;;;3.00;1.17;;;;;24.53;54.11;101625.66;2011557;28;2730514;-74
2023/08/12 17:27:26;;;;;;;;;2.67;2.67;;;;;24.54;54.16;101618.47;1983994;28;2754519;-74
2023/08/12 17:28:39;;;;;;;;;1.00;1.00;;;;;24.53;53.62;101623.00;2033052;28;2728399;-74
2023/08/12 17:29:53;;;;;;;;;2.33;1.83;;;;;24.54;53.69;101618.47;2009956;27;2728467;-74
2023/08/12 17:31:05;;;;;;;;;3.00;3.00;;;;;24.53;54.35;101622.13;1982148;28;2752368;-74
2023/08/12 17:32:18;;;;;;;;;2.83;2.00;;;;;24.53;54.13;101624.81;2027639;28;2741997;-74
2023/08/12 17:33:28;;;;;;;;;3.00;1.33;;;;;24.52;53.41;101623.94;1979146;28;2745124;-74
2023/08/12 17:34:39;;;;;;;;;1.00;1.00;;;;;24.53;53.47;101614.06;2025774;28;2733638;-74
2023/08/12 17:35:49;;;;;;;;;1.00;1.00;;;;;24.54;53.81;101621.16;2002244;28;2725298;-74
2023/08/12 17:37:00;;;;;;;;;1.00;1.00;;;;;24.53;53.14;101617.63;2026134;28;2739875;-74
2023/08/12 17:38:14;;;;;;;;;1.17;1.17;;;;;24.54;53.58;101622.03;2027092;28;2722193;-74
2023/08/12 17:39:27;;;;;;;;;1.67;1.50;;;;;24.54;53.43;101629.22;2003886;28;2724696;-74
2023/08/12 17:40:40;;;;;;;;;1.83;1.33;;;;;24.53;53.06;101614.06;2004810;28;2728435;-74
2023/08/12 17:41:54;;;;;;;;;2.33;1.50;;;;;24.53;52.65;101620.28;1997654;28;2729454;-74
2023/08/12 17:43:04;;;;;;;;;2.00;2.00;;;;;24.53;52.80;101617.63;1980349;28;2739860;-74
2023/08/12 17:44:15;;;;;;;;;2.00;1.00;;;;;24.55;52.93;101620.16;2040146;27;2730786;-74
2023/08/12 17:45:25;;;;;;;;;1.67;1.67;;;;;24.54;52.85;101619.34;1978349;27;2737241;-73
2023/08/12 17:46:37;;;;;;;;;1.00;1.00;;;;;24.56;52.89;101620.06;2026284;28;2725281;-73
2023/08/12 17:47:56;;;;;;;;;3.00;1.33;;;;;24.56;52.88;101620.06;2002153;28;2739876;-73
2023/08/12 17:49:09;;;;;;;;;1.17;1.17;;;;;24.56;52.85;101619.19;2024413;28;2729448;-73
2023/08/12 17:50:23;;;;;;;;;2.00;2.00;;;;;24.57;52.96;101618.25;2005652;28;2720090;-73
2023/08/12 17:51:33;;;;;;;;;5.33;4.67;;;;;24.58;53.39;101619.94;1980047;28;2748228;-73
2023/08/12 17:52:44;;;;;;;;;3.00;2.00;;;;;24.56;52.99;101617.38;2017272;28;2749356;-73
2023/08/12 17:53:55;;;;;;;;;2.00;2.00;;;;;24.57;52.97;101620.94;2012730;28;2734661;-73
2023/08/12 17:55:06;;;;;;;;;1.00;1.00;;;;;24.57;53.08;101626.31;2014366;28;2741973;-73
2023/08/12 17:56:19;;;;;;;;;3.00;1.00;;;;;24.56;52.70;101625.44;2022715;28;2724243;-73
2023/08/12 17:57:32;;;;;;;;;2.67;1.67;;;;;24.57;52.80;101620.94;2005807;28;2730567;-74
2023/08/12 17:58:45;;;;;;;;;1.33;1.33;;;;;24.58;53.07;101622.63;2005034;28;2738835;-75
2023/08/12 17:59:56;;;;;;;;;3.00;2.00;;;;;24.59;53.25;101621.66;1979533;28;2739876;-74
2023/08/12 18:01:07;;;;;;;;;2.00;2.00;;;;;24.59;52.80;101619.81;2026980;28;2737811;-75
2023/08/12 18:02:17;;;;;;;;;2.00;2.00;;;;;24.60;52.78;101624.22;2001817;28;2737817;-74
2023/08/12 18:03:28;;;;;;;;;2.33;2.00;;;;;24.61;52.86;101622.38;2017506;28;2736743;-74
2023/08/12 18:04:39;;;;;;;;;1.00;1.00;;;;;24.63;52.98;101627.63;2026661;28;2725292;-74
2023/08/12 18:05:52;;;;;;;;;3.50;1.00;;;;;24.61;53.17;101622.38;2005027;27;2731544;-74
2023/08/12 18:07:03;;;;;;;;;2.00;2.00;;;;;24.60;52.98;101626.91;1978331;28;2744206;-73
2023/08/12 18:08:17;;;;;;;;;1.17;1.17;;;;;24.61;53.42;101622.38;2027233;27;2733603;-74
2023/08/12 18:09:28;;;;;;;;;1.67;1.67;;;;;24.60;53.04;101629.59;1978923;28;2737803;-74
2023/08/12 18:10:40;;;;;;;;;1.80;1.80;;;;;24.60;53.04;101626.91;2027144;28;2734705;-74
2023/08/12 18:11:51;;;;;;;;;3.67;2.00;;;;;24.61;52.89;101622.38;2002806;28;2746131;-74
2023/08/12 18:13:02;;;;;;;;;6.33;5.00;;;;;24.60;53.48;101629.59;2018155;28;2746195;-74
2023/08/12 18:14:14;;;;;;;;;2.25;1.00;;;;;24.60;52.96;101624.22;2029715;27;2731531;-74
2023/08/12 18:15:24;;;;;;;;;2.00;2.00;;;;;24.60;52.90;101620.66;2001810;28;2743067;-74
2023/08/12 18:16:35;;;;;;;;;1.33;1.33;;;;;24.60;52.53;101620.66;2025981;28;2727361;-74
2023/08/12 18:17:50;;;;;;;;;1.83;1.00;;;;;24.59;53.30;101617.13;1998504;28;2733621;-74
2023/08/12 18:19:03;;;;;;;;;1.67;1.67;;;;;24.59;52.69;101617.13;2004789;28;2734661;-74
2023/08/12 18:20:14;;;;;;;;;2.67;2.67;;;;;24.60;52.76;101628.72;1986517;28;3470048;-73
2023/08/12 18:21:25;;;;;;;;;1.00;1.00;;;;;24.59;52.91;101616.28;2034680;28;2724331;-73
2023/08/12 18:22:35;;;;;;;;;2.00;1.67;;;;;24.59;53.34;101627.03;1985104;28;2733591;-73
2023/08/12 18:23:46;;;;;;;;;2.00;2.00;;;;;24.60;53.11;101626.03;2026115;28;2746172;-73
2023/08/12 18:24:58;;;;;;;;;1.00;1.00;;;;;24.59;52.69;101635.94;2034249;28;2725266;-73
2023/08/12 18:26:08;;;;;;;;;3.33;1.67;;;;;24.59;53.30;101629.72;2009250;28;2750332;-73
2023/08/12 18:27:20;;;;;;;;;2.67;1.33;;;;;24.59;53.15;101635.94;2033796;28;2731560;-73
2023/08/12 18:28:30;;;;;;;;;2.00;2.00;;;;;24.58;53.12;101634.22;1986455;28;2734024;-73
2023/08/12 18:29:44;;;;;;;;;1.00;1.00;;;;;24.59;53.46;101633.25;2035282;28;2727379;-73
2023/08/12 18:30:57;;;;;;;;;1.00;1.00;;;;;24.59;53.28;101635.09;2036316;28;2724241;-73
2023/08/12 18:32:10;;;;;;;;;2.00;1.50;;;;;24.59;53.17;101635.09;2011230;28;2716926;-72
2023/08/12 18:33:21;;;;;;;;;2.67;2.67;;;;;24.59;53.23;101632.41;1989017;27;2750268;-72
2023/08/12 18:34:32;;;;;;;;;3.00;2.00;;;;;24.59;53.50;101635.94;2035280;28;2737762;-73
2023/08/12 18:35:43;;;;;;;;;4.67;2.33;;;;;24.58;53.20;101631.53;1985936;27;2744064;-73
2023/08/12 18:36:54;;;;;;;;;2.00;2.00;;;;;24.59;53.13;101637.78;2010905;28;2735786;-74
2023/08/12 18:38:05;;;;;;;;;1.00;1.00;;;;;24.58;53.35;101631.53;2005128;28;2731523;-74
2023/08/12 18:39:17;;;;;;;;;3.00;2.33;;;;;24.59;53.20;101633.25;2016937;28;2746184;-75
2023/08/12 18:40:32;;;;;;;;;1.50;1.33;;;;;24.59;53.45;101638.63;2025588;27;2729484;-74
2023/08/12 18:41:45;;;;;;;;;3.33;2.00;;;;;24.59;53.55;101632.41;2004828;27;2745089;-75
2023/08/12 18:42:59;;;;;;;;;2.17;1.17;;;;;24.58;53.25;101631.53;2014114;28;2714878;-74
2023/08/12 18:44:10;;;;;;;;;2.00;2.00;;;;;24.59;53.55;101635.09;1987957;27;2747236;-75
2023/08/12 18:45:23;;;;;;;;;3.00;1.17;;;;;24.58;53.31;101633.38;2032823;28;2714877;-74
2023/08/12 18:46:34;;;;;;;;;2.00;2.00;;;;;24.58;52.87;101638.75;2008498;28;2746231;-73
2023/08/12 18:47:45;;;;;;;;;2.33;1.67;;;;;24.59;53.34;101640.47;2028505;28;2740454;-73
2023/08/12 18:48:57;;;;;;;;;1.25;1.25;;;;;24.58;53.11;101636.91;2040939;28;2741944;-73
2023/08/12 18:50:07;;;;;;;;;7.67;3.00;;;;;24.58;53.28;101641.44;2009219;28;3476315;-74
2023/08/12 18:51:20;;;;;;;;;1.00;1.00;;;;;24.58;53.53;101644.97;2013009;28;2729529;-81
2023/08/12 18:52:30;;;;;;;;;1.67;1.67;;;;;24.58;53.10;101644.13;2005654;27;2739913;-76
2023/08/12 18:53:41;;;;;;;;;4.00;4.00;;;;;24.59;53.23;101652.06;2019448;28;3463802;-72
2023/08/12 18:54:53;;;;;;;;;1.00;1.00;;;;;24.58;52.55;101650.34;2033113;28;2729490;-72
2023/08/12 18:56:04;;;;;;;;;7.67;6.67;;;;;24.59;53.08;101653.91;2002057;27;2739987;-72
2023/08/12 18:57:14;;;;;;;;;2.00;1.33;;;;;24.60;52.97;101652.91;2006310;28;2738867;-72
2023/08/12 18:58:25;;;;;;;;;3.67;1.33;;;;;24.60;53.44;101655.59;2019958;28;2739935;-73
2023/08/12 18:59:37;;;;;;;;;1.67;1.67;;;;;24.60;52.63;101639.47;2020153;27;2738825;-73
2023/08/12 19:00:47;;;;;;;;;2.00;2.00;;;;;24.60;52.93;101648.41;2010283;28;2750909;-73
2023/08/12 19:02:00;;;;;;;;;2.00;2.00;;;;;24.59;53.25;101645.84;2035816;28;2729453;-72
2023/08/12 19:03:13;;;;;;;;;6.50;3.00;;;;;24.59;52.44;101640.47;2011616;28;2738824;-72
2023/08/12 19:04:24;;;;;;;;;2.33;2.33;;;;;24.59;52.62;101645.84;1978250;27;2749256;-72
2023/08/12 19:05:35;;;;;;;;;2.00;2.00;;;;;24.59;52.23;101643.16;2002602;27;2745131;-73
2023/08/12 19:06:45;;;;;;;;;2.00;2.00;;;;;24.60;52.88;101647.53;2000199;28;2731604;-72
2023/08/12 19:07:56;;;;;;;;;1.00;1.00;;;;;24.58;52.87;101644.97;2012779;28;2738862;-72
2023/08/12 19:09:08;;;;;;;;;5.33;3.67;;;;;24.60;52.88;101655.59;2023403;28;2747165;-72
2023/08/12 19:10:19;;;;;;;;;3.00;2.00;;;;;24.60;52.75;101650.22;2013527;27;2754521;-72
2023/08/12 19:11:30;;;;;;;;;2.33;2.33;;;;;24.59;52.60;101651.22;2020583;27;2750396;-73
2023/08/12 19:12:41;;;;;;;;;4.25;2.75;;;;;24.60;52.56;101648.41;2034696;28;2739845;-73
2023/08/12 19:13:55;;;;;;;;;3.00;3.00;;;;;24.60;52.21;101647.53;2036111;28;2737796;-73
2023/08/12 19:15:05;;;;;;;;;2.00;2.00;;;;;24.61;52.28;101643.88;1987576;28;2744094;-72
2023/08/12 19:16:19;;;;;;;;;3.83;3.00;;;;;24.61;52.21;101644.75;2035972;28;2737828;-72
2023/08/12 19:17:29;;;;;;;;;2.00;2.00;;;;;24.61;52.33;101647.44;2009716;28;2741996;-72
2023/08/12 19:18:40;;;;;;;;;2.00;2.00;;;;;24.61;51.97;101657.31;2034632;28;2741971;-72
2023/08/12 19:19:50;;;;;;;;;2.00;2.00;;;;;24.61;51.95;101649.25;2009703;28;2740972;-72
2023/08/12 19:21:02;;;;;;;;;4.00;2.00;;;;;24.61;52.31;101654.63;2016383;28;2752541;-73
2023/08/12 19:22:13;;;;;;;;;3.00;3.00;;;;;24.62;52.01;101645.56;2001535;28;2734645;-72
2023/08/12 19:23:24;;;;;;;;;2.67;2.67;;;;;24.62;52.57;101645.56;2020723;27;2742010;-72
2023/08/12 19:24:36;;;;;;;;;1.00;1.00;;;;;24.63;51.78;101646.44;2032683;28;2725273;-72
2023/08/12 19:25:47;;;;;;;;;1.33;1.33;;;;;24.63;51.63;101651.81;1999780;28;2741984;-72
2023/08/12 19:26:58;;;;;;;;;3.00;2.00;;;;;24.62;51.97;101640.19;2034231;28;2744051;-73
2023/08/12 19:28:11;;;;;;;;;4.00;2.00;;;;;24.61;51.45;101644.75;2019754;28;2735697;-72
2023/08/12 19:29:24;;;;;;;;;1.50;1.00;;;;;24.63;51.57;101647.28;2011969;27;2738819;-73
2023/08/12 19:30:37;;;;;;;;;4.17;2.33;;;;;24.62;51.65;101645.56;2010187;28;2739889;-72
2023/08/12 19:31:48;;;;;;;;;4.00;3.00;;;;;24.63;51.72;101652.66;1979012;28;2739910;-72
2023/08/12 19:32:59;;;;;;;;;2.00;2.00;;;;;24.62;51.65;101656.31;2018832;28;2746191;-72
2023/08/12 19:34:11;;;;;;;;;3.25;1.00;;;;;24.63;51.75;101655.34;2034909;28;2722184;-72
2023/08/12 19:35:21;;;;;;;;;2.00;2.00;;;;;24.62;51.69;101656.31;2009378;28;2744034;-72
2023/08/12 19:36:32;;;;;;;;;2.00;2.00;;;;;24.63;51.56;101657.19;2021361;28;2748178;-72
2023/08/12 19:37:44;;;;;;;;;1.75;1.00;;;;;24.63;51.82;101655.34;2035848;28;2724232;-72
2023/08/12 19:38:54;;;;;;;;;4.33;3.00;;;;;24.63;51.48;101663.41;2009456;28;2743056;-72
2023/08/12 19:40:07;;;;;;;;;2.00;1.00;;;;;24.63;51.45;101667.94;2025518;27;2733068;-72
2023/08/12 19:41:18;;;;;;;;;4.67;3.00;;;;;24.63;51.18;101673.31;1980659;28;2742071;-72
2023/08/12 19:42:30;;;;;;;;;2.33;2.33;;;;;24.63;51.55;101676.84;1998358;28;2742019;-72
2023/08/12 19:43:40;;;;;;;;;4.00;3.00;;;;;24.63;51.64;101674.16;1992622;28;2741989;-72
2023/08/12 19:44:51;;;;;;;;;4.67;4.00;;;;;24.63;51.33;101673.31;2018895;28;2741932;-72
2023/08/12 19:46:02;;;;;;;;;5.00;3.00;;;;;24.63;51.32;101678.69;2019915;27;3467953;-73
2023/08/12 19:47:13;;;;;;;;;4.00;4.00;;;;;24.62;51.37;101680.50;2027539;27;2750420;-73
2023/08/12 19:48:24;;;;;;;;;4.00;3.00;;;;;24.63;51.85;101682.22;2011230;27;3465940;-73
2023/08/12 19:49:34;;;;;;;;;2.67;2.67;;;;;24.62;51.57;101680.50;2039707;27;2749231;-73
2023/08/12 19:50:46;;;;;;;;;5.00;4.00;;;;;24.62;51.60;101688.56;2022414;28;2737191;-73
2023/08/12 19:51:57;;;;;;;;;11.25;4.50;;;;;24.61;51.63;101689.56;2013540;27;1844058;-73
2023/08/12 19:53:09;;;;;;;;;4.67;4.33;;;;;24.61;51.57;101692.25;1998563;27;2746228;-72
2023/08/12 19:54:19;;;;;;;;;5.33;3.67;;;;;24.60;51.84;101683.31;1995636;27;3466951;-73
2023/08/12 19:55:30;;;;;;;;;7.00;5.00;;;;;24.60;51.28;101688.69;2021647;28;3453446;-73
2023/08/12 19:56:41;;;;;;;;;7.67;4.00;;;;;24.60;51.53;101693.22;2014399;27;2748305;-73
2023/08/12 19:57:52;;;;;;;;;7.00;5.67;;;;;24.59;51.35;101695.06;2019496;27;2749390;-73
2023/08/12 19:59:03;;;;;;;;;6.00;5.00;;;;;24.58;51.30;101697.84;2019977;28;2750741;-73
2023/08/12 20:00:14;;;;;;;;;7.33;5.00;;;;;24.58;51.52;101705.91;2013052;27;2745096;-73
2023/08/12 20:01:25;;;;;;;;;6.67;6.00;;;;;24.56;51.75;101705.19;2012906;28;3453402;-73
2023/08/12 20:02:37;;;;;;;;;6.00;5.00;;;;;24.56;51.94;101702.50;2013383;27;2743035;-73
2023/08/12 20:03:47;;;;;;;;;7.00;5.00;;;;;24.54;51.62;101707.16;2018838;27;2742120;-73
2023/08/12 20:04:58;;;;;;;;;4.00;4.00;;;;;24.53;51.64;101700.03;2019214;28;2747220;-73
2023/08/12 20:06:11;;;;;;;;;5.33;5.00;;;;;24.53;51.61;101700.91;2014771;27;2747263;-73
2023/08/12 20:07:22;;;;;;;;;5.00;3.67;;;;;24.53;51.76;101708.97;2008580;28;2748296;-73
2023/08/12 20:08:33;;;;;;;;;7.00;7.00;;;;;24.52;51.76;101709.94;2034377;28;2730506;-73
2023/08/12 20:09:44;;;;;;;;;6.00;4.00;;;;;24.50;51.61;101710.06;2013601;27;3464916;-73
2023/08/12 20:10:55;;;;;;;;;5.00;5.00;;;;;24.50;51.51;101707.38;2010007;28;2750387;-73
2023/08/12 20:12:06;;;;;;;;;5.33;4.33;;;;;24.49;51.70;101705.69;2011090;28;3470056;-73
2023/08/12 20:13:16;;;;;;;;;8.00;7.00;;;;;24.47;51.42;101712.97;2017915;28;2743092;-73
2023/08/12 20:14:27;;;;;;;;;5.67;5.33;;;;;24.45;51.46;101714.94;2013810;27;2746375;-73
2023/08/12 20:15:38;;;;;;;;;6.67;5.33;;;;;24.44;51.71;101715.06;2029361;27;2744044;-73
2023/08/12 20:16:49;;;;;;;;;5.00;4.67;;;;;24.42;51.54;101714.31;2015585;27;2740989;-73
2023/08/12 20:18:00;;;;;;;;;6.00;5.00;;;;;24.42;51.94;101719.69;2019045;27;2746600;-73
2023/08/12 20:19:11;;;;;;;;;5.67;5.00;;;;;24.39;51.59;101716.28;2009218;28;2734712;-73
2023/08/12 20:20:21;;;;;;;;;3.67;3.67;;;;;24.39;51.61;101710.03;2021375;27;3467956;-73
2023/08/12 20:21:32;;;;;;;;;4.00;4.00;;;;;24.38;51.85;101713.69;2021619;28;3468015;-73
2023/08/12 20:22:46;;;;;;;;;6.00;5.33;;;;;24.37;51.68;101707.47;2022755;28;3459632;-73
2023/08/12 20:23:59;;;;;;;;;5.17;5.17;;;;;24.36;51.96;101710.28;2033186;27;2748176;-73
2023/08/12 20:25:09;;;;;;;;;5.00;3.67;;;;;24.35;51.75;101713.91;1980584;28;2745177;-73
2023/08/12 20:26:22;;;;;;;;;6.00;3.00;;;;;24.34;51.90;101717.59;2015478;28;3464191;-73
2023/08/12 20:27:32;;;;;;;;;4.33;4.33;;;;;24.34;51.87;101723.84;1994118;28;3456506;-73
2023/08/12 20:28:43;;;;;;;;;5.33;4.33;;;;;24.33;52.30;101735.53;2012328;28;2745142;-73
2023/08/12 20:29:54;;;;;;;;;3.33;3.00;;;;;24.32;51.76;101735.66;2022266;28;2745158;-74
2023/08/12 20:31:05;;;;;;;;;5.67;4.00;;;;;24.31;52.04;101732.13;2021323;28;2733672;-73
2023/08/12 20:32:16;;;;;;;;;5.00;5.00;;;;;24.31;51.99;101740.19;2020594;27;2746184;-73
2023/08/12 20:33:26;;;;;;;;;6.00;3.00;;;;;24.31;51.53;101733.94;2013733;28;2752425;-73
2023/08/12 20:34:37;;;;;;;;;6.00;4.00;;;;;24.31;51.71;101728.56;2013174;28;2752421;-73
2023/08/12 20:35:48;;;;;;;;;4.00;4.00;;;;;24.31;51.65;101720.50;2013854;27;3470044;-73
2023/08/12 20:36:59;;;;;;;;;4.00;3.33;;;;;24.30;51.47;101718.81;2018797;28;3470068;-73
2023/08/12 20:38:10;;;;;;;;;3.33;3.33;;;;;24.30;51.49;101710.75;2019935;28;3464333;-73
2023/08/12 20:39:21;;;;;;;;;5.00;3.00;;;;;24.31;51.36;101712.47;2020077;28;2749328;-73
2023/08/12 20:40:32;;;;;;;;;2.00;2.00;;;;;24.31;51.53;101716.00;2012232;27;2740959;-73
2023/08/12 20:41:42;;;;;;;;;3.67;3.67;;;;;24.30;51.57;101703.53;2012114;27;2748252;-73
2023/08/12 20:42:53;;;;;;;;;5.00;3.00;;;;;24.31;51.46;101701.72;2024447;27;2740890;-73
2023/08/12 20:44:04;;;;;;;;;3.00;2.00;;;;;24.30;51.70;101708.91;2013435;28;3457565;-73
2023/08/12 20:45:15;;;;;;;;;3.67;3.33;;;;;24.29;51.47;101709.91;2020604;27;3463144;-73
2023/08/12 20:46:26;;;;;;;;;3.00;3.00;;;;;24.28;51.27;101700.97;2012570;27;3460693;-73
2023/08/12 20:47:37;;;;;;;;;4.67;3.67;;;;;24.28;51.05;101702.81;2016551;27;2746196;-73
2023/08/12 20:48:48;;;;;;;;;4.67;3.67;;;;;24.28;51.02;101708.19;2015649;27;3461771;-73
2023/08/12 20:49:59;;;;;;;;;4.33;4.00;;;;;24.28;50.93;101702.81;2022283;28;2746186;-73
2023/08/12 20:51:09;;;;;;;;;5.67;3.00;;;;;24.28;50.68;101692.91;2018386;27;2754484;-73
2023/08/12 20:52:20;;;;;;;;;3.00;2.67;;;;;24.28;51.07;101697.44;2021334;28;2746196;-73
2023/08/12 20:53:32;;;;;;;;;3.33;3.33;;;;;24.28;51.29;101700.97;2004991;28;2740923;-73
2023/08/12 20:54:42;;;;;;;;;3.67;3.67;;;;;24.30;51.08;101705.38;2001722;28;2747257;-73
2023/08/12 20:55:53;;;;;;;;;5.00;3.00;;;;;24.28;51.19;101700.97;2023195;28;3464274;-73
2023/08/12 20:57:04;;;;;;;;;3.33;3.33;;;;;24.28;50.76;101708.19;2012748;28;2744101;-73
2023/08/12 20:58:15;;;;;;;;;4.00;3.00;;;;;24.28;50.86;101705.50;2019360;28;2746170;-73
2023/08/12 20:59:26;;;;;;;;;3.00;3.00;;;;;24.28;50.76;101702.81;2011509;28;2739927;-73
2023/08/12 21:00:38;;;;;;;;;3.00;3.00;;;;;24.28;50.96;101708.19;1999958;28;2735711;-73
2023/08/12 21:01:49;;;;;;;;;3.33;2.00;;;;;24.27;50.85;101704.63;2005963;28;2754566;-73
2023/08/12 21:03:00;;;;;;;;;2.33;2.33;;;;;24.28;50.93;101714.41;2021755;28;2736750;-73
2023/08/12 21:04:11;;;;;;;;;3.00;3.00;;;;;24.27;50.70;101712.69;2019751;28;2750357;-73
2023/08/12 21:05:22;;;;;;;;;3.67;3.67;;;;;24.27;50.40;101710.00;2008967;27;2748353;-73
2023/08/12 21:06:32;;;;;;;;;4.00;3.00;;;;;24.27;50.88;101706.47;2008740;28;2742027;-73
2023/08/12 21:07:43;;;;;;;;;3.67;3.00;;;;;24.26;50.47;101702.94;2027233;27;3447112;-73
2023/08/12 21:08:54;;;;;;;;;4.00;2.33;;;;;24.26;50.11;101713.69;2029708;27;2750322;-73
2023/08/12 21:10:05;;;;;;;;;3.00;2.00;;;;;24.25;50.36;101714.63;2042338;27;3459612;-73
2023/08/12 21:11:16;;;;;;;;;3.33;3.33;;;;;24.25;50.59;101719.13;2010713;28;2745099;-73
2023/08/12 21:12:27;;;;;;;;;3.67;2.00;;;;;24.25;50.32;101713.75;2026253;28;3467945;-73
2023/08/12 21:13:38;;;;;;;;;6.33;2.67;;;;;24.24;50.56;101715.59;2022601;28;2747127;-73
2023/08/12 21:14:48;;;;;;;;;3.00;2.33;;;;;24.23;50.95;101713.88;2022841;28;2749283;-73
2023/08/12 21:15:59;;;;;;;;;3.00;3.00;;;;;24.23;50.58;101716.56;2022994;28;2738822;-73
2023/08/12 21:17:10;;;;;;;;;3.67;3.00;;;;;24.23;50.92;101719.25;2024914;28;3462782;-73
2023/08/12 21:18:21;;;;;;;;;2.67;1.00;;;;;24.23;50.38;101715.69;2019272;28;2720152;-73
2023/08/12 21:19:32;;;;;;;;;2.67;2.67;;;;;24.23;50.73;101707.63;2009492;28;2746685;-73
2023/08/12 21:20:43;;;;;;;;;3.00;1.67;;;;;24.22;50.17;101709.50;2015242;28;2735707;-73
2023/08/12 21:21:55;;;;;;;;;3.00;3.00;;;;;24.23;50.43;101711.19;2020089;27;2728402;-73
2023/08/12 21:23:05;;;;;;;;;2.67;2.67;;;;;24.22;50.12;101711.31;2002046;28;2739282;-73
2023/08/12 21:24:16;;;;;;;;;2.67;2.67;;;;;24.21;50.50;101710.44;2026004;28;2746126;-73
2023/08/12 21:25:27;;;;;;;;;2.00;2.00;;;;;24.21;50.24;101713.13;2017998;28;2746099;-73
2023/08/12 21:26:38;;;;;;;;;4.33;3.00;;;;;24.21;50.46;101712.28;2023004;28;2747216;-74
2023/08/12 21:27:48;;;;;;;;;3.00;2.00;;;;;24.21;50.84;101713.13;2023208;27;2752483;-72
2023/08/12 21:29:00;;;;;;;;;4.00;3.25;;;;;24.21;50.42;101713.13;2034428;28;2737818;-72
2023/08/12 21:30:11;;;;;;;;;2.67;2.67;;;;;24.20;50.62;101711.41;2000355;28;2746282;-72
2023/08/12 21:31:22;;;;;;;;;3.00;3.00;;;;;24.19;49.95;101712.41;2008410;28;2737806;-71
2023/08/12 21:32:33;;;;;;;;;2.00;2.00;;;;;24.18;50.78;101716.03;2034003;27;2740437;-71
2023/08/12 21:33:46;;;;;;;;;3.00;3.00;;;;;24.17;50.93;101709.81;2013273;28;2730994;-71
2023/08/12 21:35:00;;;;;;;;;0.00;0.00;;;;;24.17;50.80;101714.34;2012595;27;2733584;-73
2023/08/12 21:36:10;;;;;;;;;2.00;2.00;;;;;24.15;50.80;101716.31;1985274;28;2748265;-73
2023/08/12 21:37:21;;;;;;;;;2.33;2.00;;;;;24.15;51.27;101714.44;2020561;28;2746161;-73
2023/08/12 21:38:33;;;;;;;;;2.00;2.00;;;;;24.15;51.04;101705.56;2028139;27;2745104;-72
2023/08/12 21:39:43;;;;;;;;;4.00;2.00;;;;;24.16;50.92;101710.81;2007413;27;2754495;-73
2023/08/12 21:40:54;;;;;;;;;4.00;2.67;;;;;24.13;51.00;101711.03;2010598;28;2753489;-73
2023/08/12 21:42:05;;;;;;;;;3.33;3.00;;;;;24.14;50.96;101709.22;2012623;28;2740266;-73
2023/08/12 21:43:17;;;;;;;;;2.50;2.00;;;;;24.13;51.30;101711.03;2034085;28;2749263;-77
2023/08/12 21:44:28;;;;;;;;;4.33;3.33;;;;;24.13;51.39;101707.47;1978011;28;3459619;-74